Highgate Falls, Vermont
Current Conditions -  °F | °C
As of 10:55 AM on Tuesday 21 Oct 2014 (Local Time) from KFSO Reporting Station
Light Rain Light Rain  
Wind Chill: 44°   Ceiling: 4800
Heat Index: 47°   Visibility: 10mi
Dew Point: 45°   Wind: 5mph
Humidity: 93%   Direction: 50°NE
Pressure: 29.99"   Gusts: NA
Location:  44.958°N, 72.9958°W
Report Text: KFSO 211455Z AUTO 05004KT 10SM -RA OVC048 08/07 A2999 RMK AO2 T00810071
Loading
Personal Weather Stations






























Interactive Weather Map
Tropical Storm Tracking
New forecast layout! Learn more

10-Day Weather Forecast

Advertisements
Track Severe Weather on mobile